Time;durP1;ratioP1;P1;durP2;ratioP2;P2;SDS_P1;SDS_P2;PMS_P1;PMS_P2;Temp;Humidity;BMP_temperature;BMP_pressure;BME280_temperature;BME280_humidity;BME280_pressure;Samples;Min_cycle;Max_cycle;Signal;HPM_P1;HPM_P2
2023/12/01 00:02:22;;;;;;;6.77;5.10;;;21.40;60.10;;;;;;4986836;28;20464;-85
2023/12/01 00:04:50;;;;;;;4.50;4.20;;;21.40;60.00;;;;;;4989438;28;20457;-85
2023/12/01 00:07:20;;;;;;;4.40;4.03;;;21.40;60.00;;;;;;4989238;28;20492;-86
2023/12/01 00:09:48;;;;;;;4.30;3.90;;;21.40;60.00;;;;;;4990183;28;20456;-87
2023/12/01 00:12:16;;;;;;;4.03;3.73;;;21.40;60.00;;;;;;4988805;28;20493;-87
2023/12/01 00:14:44;;;;;;;3.80;3.50;;;21.40;60.00;;;;;;4987575;28;20486;-89
2023/12/01 00:17:13;;;;;;;4.10;3.67;;;21.40;59.90;;;;;;4991102;28;20467;-87
2023/12/01 00:19:41;;;;;;;4.27;3.50;;;21.30;59.80;;;;;;4980908;28;20454;-87
2023/12/01 00:22:10;;;;;;;3.70;3.40;;;21.30;59.80;;;;;;5006380;28;20499;-87
2023/12/01 00:24:39;;;;;;;4.33;3.93;;;21.30;59.80;;;;;;4991894;28;20944;-87
2023/12/01 00:27:08;;;;;;;4.13;3.80;;;21.30;59.80;;;;;;4981367;28;20501;-87
2023/12/01 00:29:36;;;;;;;4.40;4.10;;;21.30;59.70;;;;;;4993365;28;20467;-87
2023/12/01 00:32:05;;;;;;;4.67;4.27;;;21.30;59.70;;;;;;4984014;28;20471;-88
2023/12/01 00:34:36;;;;;;;4.57;4.03;;;21.30;59.70;;;;;;5003415;28;20474;-87
2023/12/01 00:37:23;;;;;;;3.33;2.97;;;21.30;59.70;;;;;;4994613;28;21173;-89
2023/12/01 00:39:53;;;;;;;4.40;3.60;;;21.30;59.70;;;;;;4996769;28;20832;-88
2023/12/01 00:42:21;;;;;;;3.97;3.53;;;21.20;59.70;;;;;;4994112;28;20472;-87
2023/12/01 00:44:50;;;;;;;4.03;3.73;;;21.20;59.60;;;;;;4991471;28;20459;-86
2023/12/01 00:47:18;;;;;;;3.80;3.50;;;21.20;59.60;;;;;;4987975;28;20479;-87
2023/12/01 00:49:46;;;;;;;5.23;3.77;;;21.20;59.60;;;;;;4986424;28;20460;-88
2023/12/01 00:52:14;;;;;;;4.93;3.57;;;21.20;59.60;;;;;;4993817;28;20472;-87
2023/12/01 00:54:43;;;;;;;3.53;3.20;;;21.10;59.60;;;;;;4989316;28;20471;-87
2023/12/01 00:57:12;;;;;;;4.30;4.00;;;21.10;59.60;;;;;;4989158;28;20514;-87
2023/12/01 00:59:41;;;;;;;3.87;3.40;;;21.10;59.60;;;;;;4989980;28;20484;-89
2023/12/01 01:02:09;;;;;;;3.70;3.50;;;21.10;59.50;;;;;;5000262;28;20945;-87
2023/12/01 01:04:37;;;;;;;4.33;3.93;;;21.10;59.50;;;;;;4991276;28;20485;-87
2023/12/01 01:07:05;;;;;;;3.40;3.20;;;21.10;59.50;;;;;;4995817;28;20556;-89
2023/12/01 01:09:34;;;;;;;3.83;3.53;;;21.10;59.50;;;;;;5003624;28;20467;-87
2023/12/01 01:12:02;;;;;;;3.63;3.37;;;21.10;59.50;;;;;;4990337;28;21196;-87
2023/12/01 01:14:33;;;;;;;4.77;4.20;;;21.10;59.50;;;;;;4994164;28;20476;-87
2023/12/01 01:17:02;;;;;;;3.50;3.20;;;21.10;59.40;;;;;;4994977;28;20514;-88
2023/12/01 01:19:30;;;;;;;4.67;3.53;;;21.00;59.40;;;;;;4991970;28;20849;-87
2023/12/01 01:21:58;;;;;;;3.13;2.97;;;21.00;59.40;;;;;;4992486;28;20584;-87
2023/12/01 01:24:27;;;;;;;3.43;3.23;;;21.00;59.40;;;;;;4980272;28;20513;-87
2023/12/01 01:26:55;;;;;;;3.37;3.10;;;21.00;59.40;;;;;;4992829;28;20533;-87
2023/12/01 01:29:23;;;;;;;5.70;3.50;;;21.00;59.40;;;;;;4994517;28;20465;-87
2023/12/01 01:31:53;;;;;;;3.80;3.50;;;21.00;59.40;;;;;;4991562;28;20473;-87
2023/12/01 01:34:21;;;;;;;2.97;2.77;;;21.00;59.30;;;;;;4989606;28;20466;-87
2023/12/01 01:36:51;;;;;;;2.90;2.70;;;21.00;59.30;;;;;;4991870;28;20505;-86
2023/12/01 01:39:19;;;;;;;3.70;3.40;;;21.00;59.30;;;;;;4992619;28;20456;-88
2023/12/01 01:41:48;;;;;;;3.53;3.33;;;21.00;59.30;;;;;;4993309;28;20868;-88
2023/12/01 01:44:16;;;;;;;3.50;3.20;;;21.00;59.30;;;;;;4982859;28;20839;-87
2023/12/01 01:46:45;;;;;;;3.47;3.20;;;21.00;59.30;;;;;;4992325;28;20453;-90
2023/12/01 01:49:15;;;;;;;3.27;3.07;;;21.00;59.30;;;;;;4997444;28;20463;-87
2023/12/01 01:51:43;;;;;;;3.90;3.50;;;21.00;59.30;;;;;;4990523;28;20478;-87
2023/12/01 01:54:12;;;;;;;2.93;2.73;;;21.00;59.30;;;;;;4993621;28;20463;-86
2023/12/01 01:56:41;;;;;;;3.90;3.50;;;20.90;59.40;;;;;;4992782;28;20472;-87
2023/12/01 01:59:09;;;;;;;3.20;3.00;;;20.90;59.40;;;;;;4992103;28;20467;-87
2023/12/01 02:01:39;;;;;;;3.80;2.90;;;20.90;59.40;;;;;;4991519;28;20496;-87
2023/12/01 02:04:08;;;;;;;3.43;3.13;;;20.90;59.40;;;;;;4992917;28;20497;-89
2023/12/01 02:06:39;;;;;;;3.67;3.47;;;20.90;59.40;;;;;;4992359;28;20915;-87
2023/12/01 02:09:07;;;;;;;2.60;2.43;;;20.90;59.40;;;;;;4991804;28;20525;-87
2023/12/01 02:11:35;;;;;;;3.40;3.10;;;20.90;59.40;;;;;;4993931;28;20982;-88
2023/12/01 02:14:04;;;;;;;3.50;3.20;;;20.90;59.40;;;;;;4989852;28;20521;-87
2023/12/01 02:16:32;;;;;;;3.30;3.00;;;20.90;59.30;;;;;;4993909;28;20473;-87
2023/12/01 02:19:01;;;;;;;3.97;3.67;;;20.90;59.40;;;;;;4990061;28;21198;-88
2023/12/01 02:21:37;;;;;;;3.50;3.30;;;20.90;59.40;;;;;;4990894;28;20939;-87
2023/12/01 02:24:06;;;;;;;3.10;2.70;;;20.80;59.40;;;;;;4985897;28;20472;-88
2023/12/01 02:26:37;;;;;;;3.67;3.37;;;20.80;59.30;;;;;;4991943;28;20467;-86
2023/12/01 02:29:05;;;;;;;3.43;3.13;;;20.80;59.30;;;;;;4992971;28;20463;-89
2023/12/01 02:31:36;;;;;;;3.30;3.00;;;20.80;59.30;;;;;;4990779;28;20980;-88
2023/12/01 02:34:04;;;;;;;3.03;2.83;;;20.80;59.30;;;;;;4997631;28;20523;-89
2023/12/01 02:36:33;;;;;;;4.50;2.83;;;20.80;59.30;;;;;;4994923;28;20973;-87
2023/12/01 02:39:03;;;;;;;3.33;2.93;;;20.80;59.30;;;;;;4988759;28;20821;-87
2023/12/01 02:41:31;;;;;;;2.37;2.27;;;20.80;59.30;;;;;;5003488;28;20527;-86
2023/12/01 02:44:00;;;;;;;2.90;2.60;;;20.80;59.30;;;;;;4993185;28;20469;-88
2023/12/01 02:46:28;;;;;;;3.70;3.40;;;20.80;59.30;;;;;;4991447;28;21053;-89
2023/12/01 02:48:57;;;;;;;2.97;2.73;;;20.70;59.30;;;;;;4988614;28;20486;-88
2023/12/01 02:51:25;;;;;;;3.50;3.20;;;20.70;59.30;;;;;;4992672;28;20482;-87
2023/12/01 02:53:53;;;;;;;3.57;3.27;;;20.70;59.30;;;;;;4990739;28;20464;-87
2023/12/01 02:56:23;;;;;;;3.23;3.03;;;20.70;59.30;;;;;;4994243;28;20455;-87
2023/12/01 02:58:51;;;;;;;3.10;2.90;;;20.70;59.30;;;;;;4993614;28;20468;-87
2023/12/01 03:01:19;;;;;;;2.87;2.70;;;20.70;59.30;;;;;;4997937;28;20481;-87
2023/12/01 03:03:48;;;;;;;3.10;2.90;;;20.70;59.30;;;;;;4987684;28;20506;-86
2023/12/01 03:06:16;;;;;;;3.47;3.03;;;20.70;59.30;;;;;;5001772;28;20517;-88
2023/12/01 03:08:46;;;;;;;3.43;3.13;;;20.70;59.30;;;;;;4995670;28;20521;-87
2023/12/01 03:11:15;;;;;;;2.87;2.67;;;20.70;59.30;;;;;;4990367;28;20526;-87
2023/12/01 03:13:44;;;;;;;3.07;2.87;;;20.70;59.30;;;;;;4992224;28;20454;-86
2023/12/01 03:16:12;;;;;;;4.23;3.00;;;20.70;59.30;;;;;;4989522;28;20467;-86
2023/12/01 03:18:41;;;;;;;3.93;3.00;;;20.70;59.30;;;;;;4992480;28;20467;-87
2023/12/01 03:21:12;;;;;;;2.80;2.60;;;20.60;59.30;;;;;;4990388;28;20456;-87
2023/12/01 03:23:42;;;;;;;3.40;3.13;;;20.60;59.30;;;;;;4991744;28;20495;-87
2023/12/01 03:26:16;;;;;;;3.23;3.03;;;20.60;59.30;;;;;;4997097;28;20466;-87
2023/12/01 03:28:46;;;;;;;2.73;2.53;;;20.60;59.30;;;;;;4992550;28;20963;-87
2023/12/01 03:31:15;;;;;;;2.93;2.70;;;20.60;59.30;;;;;;4989395;28;20938;-88
2023/12/01 03:33:43;;;;;;;2.80;2.47;;;20.60;59.30;;;;;;4990008;28;20946;-87
2023/12/01 03:36:11;;;;;;;2.97;2.70;;;20.60;59.30;;;;;;4990745;28;20568;-88
2023/12/01 03:38:40;;;;;;;2.33;2.23;;;20.60;59.30;;;;;;4991013;28;20459;-88
2023/12/01 03:41:08;;;;;;;4.40;2.80;;;20.60;59.30;;;;;;4991212;28;20480;-88
2023/12/01 03:43:36;;;;;;;3.27;2.97;;;20.60;59.30;;;;;;4998150;28;20549;-88
2023/12/01 03:46:07;;;;;;;2.77;2.60;;;20.60;59.30;;;;;;4992477;28;20459;-88
2023/12/01 03:48:36;;;;;;;3.13;2.80;;;20.60;59.30;;;;;;4990979;28;20478;-87
2023/12/01 03:51:05;;;;;;;3.30;3.10;;;20.60;59.30;;;;;;4991605;28;21005;-87
2023/12/01 03:53:33;;;;;;;3.10;2.90;;;20.60;59.30;;;;;;4992050;28;20489;-87
2023/12/01 03:56:01;;;;;;;3.37;2.50;;;20.60;59.40;;;;;;4996315;28;20462;-87
2023/12/01 03:58:30;;;;;;;2.63;2.43;;;20.50;59.30;;;;;;4991686;28;20447;-87
2023/12/01 04:00:58;;;;;;;2.67;2.47;;;20.50;59.30;;;;;;4989291;28;20835;-87
2023/12/01 04:03:27;;;;;;;3.33;3.13;;;20.50;59.40;;;;;;4992073;28;20577;-87
2023/12/01 04:06:01;;;;;;;3.40;3.13;;;20.50;59.40;;;;;;4989889;28;20680;-86
2023/12/01 04:08:29;;;;;;;2.97;2.77;;;20.50;59.40;;;;;;4991690;28;20446;-86
2023/12/01 04:10:57;;;;;;;2.70;2.50;;;20.50;59.50;;;;;;4991114;28;20465;-86
2023/12/01 04:13:27;;;;;;;2.67;2.47;;;20.50;59.50;;;;;;4990165;28;20836;-87
2023/12/01 04:15:55;;;;;;;3.70;2.50;;;20.50;59.60;;;;;;4989576;28;20475;-86
2023/12/01 04:18:23;;;;;;;2.80;2.53;;;20.50;59.60;;;;;;4992139;28;20953;-87
2023/12/01 04:20:53;;;;;;;2.90;2.53;;;20.50;59.60;;;;;;4990722;28;20462;-88
2023/12/01 04:23:21;;;;;;;2.50;2.40;;;20.50;59.70;;;;;;4991008;28;20446;-89
2023/12/01 04:25:50;;;;;;;2.20;2.10;;;20.50;59.70;;;;;;4990231;28;20954;-87
2023/12/01 04:28:18;;;;;;;2.60;2.40;;;20.50;59.70;;;;;;4991584;28;20967;-86
2023/12/01 04:30:47;;;;;;;2.67;2.47;;;20.50;59.80;;;;;;4988483;28;20472;-88
2023/12/01 04:33:15;;;;;;;3.10;2.80;;;20.50;59.80;;;;;;4984224;28;20476;-87
2023/12/01 04:35:44;;;;;;;2.70;2.60;;;20.40;59.80;;;;;;4972023;28;20561;-87
2023/12/01 04:38:13;;;;;;;3.40;3.20;;;20.40;59.80;;;;;;4989436;28;20457;-87
2023/12/01 04:40:42;;;;;;;2.87;2.67;;;20.40;59.90;;;;;;4989522;28;20463;-87
2023/12/01 04:43:10;;;;;;;3.10;2.90;;;20.40;59.90;;;;;;4987599;28;20463;-87
2023/12/01 04:45:38;;;;;;;2.80;2.53;;;20.40;59.90;;;;;;4988870;28;21041;-87
2023/12/01 04:48:08;;;;;;;2.50;2.33;;;20.40;59.90;;;;;;4992973;28;20924;-88
2023/12/01 04:50:47;;;;;;;2.80;2.70;;;20.40;59.90;;;;;;4991912;28;20451;-88
2023/12/01 04:53:16;;;;;;;3.27;2.97;;;20.40;60.00;;;;;;4992523;28;20477;-87
2023/12/01 04:55:46;;;;;;;3.00;2.80;;;20.40;59.90;;;;;;5003218;28;20529;-86
2023/12/01 04:58:15;;;;;;;2.93;2.73;;;20.40;59.90;;;;;;4993273;28;20454;-87
2023/12/01 05:00:43;;;;;;;3.70;2.40;;;20.40;60.00;;;;;;4990034;28;20461;-89
2023/12/01 05:03:11;;;;;;;3.70;2.80;;;20.40;60.10;;;;;;4997128;28;20494;-87
2023/12/01 05:05:41;;;;;;;2.87;2.67;;;20.40;60.10;;;;;;4997881;28;20532;-87
2023/12/01 05:08:11;;;;;;;2.60;2.50;;;20.40;60.10;;;;;;4994210;28;20473;-87
2023/12/01 05:10:44;;;;;;;2.50;2.30;;;20.40;60.10;;;;;;4991997;28;20458;-86
2023/12/01 05:13:14;;;;;;;2.70;2.50;;;20.40;60.10;;;;;;4990168;28;20477;-86
2023/12/01 05:15:43;;;;;;;2.50;2.30;;;20.50;60.10;;;;;;4992924;28;20465;-88
2023/12/01 05:18:11;;;;;;;2.37;2.23;;;20.50;60.10;;;;;;4997075;28;20464;-87
2023/12/01 05:20:40;;;;;;;3.30;2.63;;;20.60;60.10;;;;;;4995110;28;20459;-87
2023/12/01 05:23:10;;;;;;;2.47;2.27;;;20.60;60.00;;;;;;5005805;28;20456;-87
2023/12/01 05:25:41;;;;;;;2.37;2.23;;;20.60;59.90;;;;;;4993565;28;20442;-87
2023/12/01 05:28:11;;;;;;;2.70;2.50;;;20.70;59.90;;;;;;4999424;28;20858;-87
2023/12/01 05:30:41;;;;;;;2.40;2.30;;;20.70;59.80;;;;;;4990291;28;20546;-88
2023/12/01 05:33:10;;;;;;;2.50;2.40;;;20.70;59.70;;;;;;4989022;28;20694;-87
2023/12/01 05:35:42;;;;;;;2.97;2.77;;;20.80;59.50;;;;;;4991840;28;20541;-83
2023/12/01 05:38:11;;;;;;;2.83;2.63;;;20.80;59.40;;;;;;4986100;28;20465;-90
2023/12/01 05:40:41;;;;;;;2.27;2.17;;;20.90;59.30;;;;;;4990114;28;20476;-87
2023/12/01 05:43:09;;;;;;;3.97;2.83;;;20.90;59.30;;;;;;4993142;28;20538;-87
2023/12/01 05:45:37;;;;;;;2.80;2.60;;;20.90;59.30;;;;;;4991817;28;20472;-89
2023/12/01 05:48:07;;;;;;;2.50;2.33;;;21.00;59.10;;;;;;4990911;28;20558;-86
2023/12/01 05:50:41;;;;;;;3.13;2.40;;;21.00;59.10;;;;;;4987774;28;20451;-90
2023/12/01 05:53:13;;;;;;;2.43;2.33;;;21.10;59.10;;;;;;5002330;28;20817;-88
2023/12/01 05:55:43;;;;;;;3.20;3.00;;;21.10;59.10;;;;;;4983000;28;20962;-87
2023/12/01 05:58:13;;;;;;;3.00;2.77;;;21.10;59.10;;;;;;4988048;28;20457;-87
2023/12/01 06:00:42;;;;;;;2.80;2.60;;;21.20;59.10;;;;;;4980659;28;20470;-87
2023/12/01 06:03:12;;;;;;;2.73;2.60;;;21.20;59.00;;;;;;4989119;28;21141;-90
2023/12/01 06:05:41;;;;;;;2.53;2.43;;;21.20;59.00;;;;;;4986126;28;20464;-88
2023/12/01 06:08:09;;;;;;;2.80;2.60;;;21.30;58.90;;;;;;4990892;28;20460;-91
2023/12/01 06:10:39;;;;;;;3.23;2.50;;;21.30;58.80;;;;;;4980046;28;20515;-87
2023/12/01 06:13:10;;;;;;;2.70;2.50;;;21.40;58.70;;;;;;4984733;28;20550;-87
2023/12/01 06:15:39;;;;;;;4.77;3.40;;;21.40;58.70;;;;;;4984828;28;20468;-88
2023/12/01 06:18:07;;;;;;;2.90;2.70;;;21.40;58.60;;;;;;4987874;28;20475;-85
2023/12/01 06:20:37;;;;;;;4.37;2.63;;;21.40;58.60;;;;;;4988864;28;20542;-87
2023/12/01 06:23:06;;;;;;;3.37;3.07;;;21.40;58.60;;;;;;4994395;28;20492;-87
2023/12/01 06:25:41;;;;;;;3.40;2.67;;;21.50;58.50;;;;;;4999207;28;20481;-88
2023/12/01 06:28:11;;;;;;;3.40;3.20;;;21.50;58.50;;;;;;4989911;28;20839;-88
2023/12/01 06:30:40;;;;;;;2.90;2.53;;;21.50;58.50;;;;;;4990779;28;20479;-87
2023/12/01 06:33:09;;;;;;;3.70;2.40;;;21.50;58.40;;;;;;4977434;28;20479;-88
2023/12/01 06:35:38;;;;;;;4.67;3.17;;;21.50;58.30;;;;;;4980606;28;20526;-87
2023/12/01 06:38:07;;;;;;;5.37;2.83;;;21.50;58.30;;;;;;4982044;28;20524;-87
2023/12/01 06:40:35;;;;;;;3.40;2.90;;;21.50;58.30;;;;;;4981699;28;20963;-88
2023/12/01 06:43:09;;;;;;;4.80;4.07;;;21.40;58.40;;;;;;4987835;28;20464;-87
2023/12/01 06:45:41;;;;;;;6.67;3.20;;;21.40;58.50;;;;;;4982233;28;20457;-87
2023/12/01 06:48:11;;;;;;;3.87;3.03;;;21.40;58.60;;;;;;4977287;28;20488;-87
2023/12/01 06:50:40;;;;;;;5.47;3.27;;;21.40;58.80;;;;;;4983491;28;20467;-86
2023/12/01 06:53:08;;;;;;;4.20;3.60;;;21.50;59.00;;;;;;4998010;28;20866;-87
2023/12/01 06:55:37;;;;;;;7.53;3.57;;;21.40;59.20;;;;;;4987012;28;20609;-84
2023/12/01 06:58:09;;;;;;;3.50;3.20;;;21.40;59.30;;;;;;4990589;28;20473;-87
2023/12/01 07:00:37;;;;;;;3.30;3.00;;;21.40;59.50;;;;;;4985355;28;20460;-86
2023/12/01 07:03:08;;;;;;;3.80;3.50;;;21.40;59.50;;;;;;4989594;28;20497;-86
2023/12/01 07:05:39;;;;;;;4.17;3.80;;;21.40;59.60;;;;;;4997423;28;20457;-87
2023/12/01 07:08:12;;;;;;;7.60;4.00;;;21.40;59.70;;;;;;4991101;28;20529;-88
2023/12/01 07:10:42;;;;;;;2.90;2.70;;;21.40;59.80;;;;;;4983350;28;21123;-86
2023/12/01 07:13:11;;;;;;;6.87;3.90;;;21.40;59.80;;;;;;4984641;28;21005;-86
2023/12/01 07:15:39;;;;;;;6.87;4.27;;;21.50;59.90;;;;;;4984304;28;20484;-87
2023/12/01 07:18:10;;;;;;;5.37;3.80;;;21.50;59.90;;;;;;4995026;28;20535;-87
2023/12/01 07:20:39;;;;;;;3.13;2.83;;;21.50;59.90;;;;;;4982304;28;20468;-87
2023/12/01 07:23:07;;;;;;;5.40;3.10;;;21.50;59.80;;;;;;4986346;28;20467;-86
2023/12/01 07:25:36;;;;;;;3.00;2.80;;;21.50;59.70;;;;;;4991466;28;20971;-86
2023/12/01 07:28:06;;;;;;;4.23;3.50;;;21.60;59.70;;;;;;4990906;28;20468;-87
2023/12/01 07:30:36;;;;;;;3.33;3.00;;;21.60;59.60;;;;;;4987885;28;20543;-88
2023/12/01 07:33:05;;;;;;;5.07;3.43;;;21.60;59.50;;;;;;4983981;28;20503;-86
2023/12/01 07:35:35;;;;;;;5.57;3.70;;;21.60;59.50;;;;;;4986905;28;20834;-89
2023/12/01 07:38:04;;;;;;;5.17;3.70;;;21.60;59.40;;;;;;4985919;28;20485;-86
2023/12/01 07:40:33;;;;;;;3.97;3.50;;;21.60;59.40;;;;;;4974996;28;20556;-89
2023/12/01 07:43:01;;;;;;;4.20;3.70;;;21.60;59.30;;;;;;4980941;28;20475;-86
2023/12/01 07:45:31;;;;;;;3.97;3.20;;;21.60;59.30;;;;;;4975925;28;20512;-88
2023/12/01 07:47:59;;;;;;;4.67;4.27;;;21.60;59.30;;;;;;4978829;28;20957;-85
2023/12/01 07:50:27;;;;;;;3.53;2.90;;;21.60;59.30;;;;;;4978224;28;20475;-86
2023/12/01 07:52:57;;;;;;;3.50;3.30;;;21.50;59.30;;;;;;4980939;28;20485;-86
2023/12/01 07:55:26;;;;;;;3.73;3.23;;;21.50;59.30;;;;;;4987553;28;20949;-86
2023/12/01 07:57:55;;;;;;;6.77;2.70;;;21.50;59.20;;;;;;4974724;28;20462;-89
2023/12/01 08:00:24;;;;;;;6.23;3.47;;;21.50;59.20;;;;;;4975190;28;20460;-88
2023/12/01 08:02:53;;;;;;;4.57;3.20;;;21.50;59.20;;;;;;4982396;28;20550;-86
2023/12/01 08:05:23;;;;;;;3.03;2.83;;;21.50;59.20;;;;;;4985077;28;20456;-86
2023/12/01 08:07:54;;;;;;;4.10;3.80;;;21.50;59.20;;;;;;4995854;28;20461;-87
2023/12/01 08:10:27;;;;;;;3.20;2.90;;;21.50;59.20;;;;;;4988583;28;20978;-87
2023/12/01 08:12:59;;;;;;;3.43;3.13;;;21.50;59.20;;;;;;4992594;28;20513;-86
2023/12/01 08:15:30;;;;;;;3.40;3.20;;;21.50;59.20;;;;;;4998244;28;20480;-86
2023/12/01 08:18:00;;;;;;;4.00;3.30;;;21.50;59.10;;;;;;4992279;28;20899;-87
2023/12/01 08:20:30;;;;;;;3.97;3.60;;;21.50;59.10;;;;;;4997845;28;20468;-86
2023/12/01 08:22:59;;;;;;;5.43;3.30;;;21.50;59.00;;;;;;4989294;28;20817;-86
2023/12/01 08:25:31;;;;;;;3.50;2.97;;;21.50;59.00;;;;;;4990935;28;20458;-86
2023/12/01 08:28:00;;;;;;;3.40;3.10;;;21.50;59.00;;;;;;4991773;28;20451;-86
2023/12/01 08:30:28;;;;;;;4.60;3.53;;;21.50;58.90;;;;;;4988437;28;21033;-87
2023/12/01 08:32:57;;;;;;;3.67;3.37;;;21.50;58.90;;;;;;4988393;28;20468;-86
2023/12/01 08:35:27;;;;;;;4.97;3.97;;;21.60;58.90;;;;;;4989373;28;20483;-86
2023/12/01 08:37:55;;;;;;;4.20;3.93;;;21.60;59.10;;;;;;4988214;28;20466;-87
2023/12/01 08:40:24;;;;;;;3.77;3.30;;;21.60;59.20;;;;;;4988592;28;20534;-87
2023/12/01 08:42:56;;;;;;;4.63;3.50;;;21.60;59.40;;;;;;4987739;28;20959;-86
2023/12/01 08:45:25;;;;;;;4.03;3.60;;;21.60;59.60;;;;;;4993625;28;20899;-88
2023/12/01 08:47:53;;;;;;;4.60;4.13;;;21.60;59.80;;;;;;4996578;28;20460;-87
2023/12/01 08:50:22;;;;;;;5.20;2.97;;;21.60;59.90;;;;;;4997582;28;20817;-86
2023/12/01 08:52:51;;;;;;;4.13;3.57;;;21.60;60.10;;;;;;4997707;28;20472;-87
2023/12/01 08:55:19;;;;;;;8.10;3.83;;;21.70;60.10;;;;;;5000600;28;20491;-86
2023/12/01 08:57:47;;;;;;;8.50;3.43;;;21.70;60.20;;;;;;4990850;28;20475;-83
2023/12/01 09:00:20;;;;;;;6.53;4.03;;;21.70;60.20;;;;;;4993791;28;20500;-84
2023/12/01 09:02:51;;;;;;;4.80;4.23;;;21.70;60.50;;;;;;4993930;28;20541;-84
2023/12/01 09:05:20;;;;;;;3.60;3.27;;;21.80;60.70;;;;;;4992375;28;20579;-85
2023/12/01 09:07:48;;;;;;;6.77;4.20;;;21.80;60.70;;;;;;4990769;28;20471;-84
2023/12/01 09:10:19;;;;;;;4.63;3.97;;;21.80;60.70;;;;;;4992377;28;20462;-83
2023/12/01 09:12:50;;;;;;;3.50;2.70;;;21.90;60.80;;;;;;4990547;28;20452;-84
2023/12/01 09:15:20;;;;;;;3.90;3.20;;;21.90;60.80;;;;;;4990924;28;20473;-83
2023/12/01 09:17:49;;;;;;;7.00;3.70;;;21.90;60.70;;;;;;4990359;28;20475;-85
2023/12/01 09:20:18;;;;;;;4.90;3.97;;;21.90;60.70;;;;;;4990848;28;20463;-84
2023/12/01 09:22:46;;;;;;;6.13;3.60;;;21.90;60.70;;;;;;4989966;28;20515;-83
2023/12/01 09:25:14;;;;;;;3.60;3.30;;;21.90;60.60;;;;;;4991054;28;20457;-84
2023/12/01 09:27:43;;;;;;;5.23;3.57;;;21.90;60.60;;;;;;4990102;28;20456;-84
2023/12/01 09:30:15;;;;;;;5.27;3.90;;;21.90;60.60;;;;;;4977135;28;20957;-90
2023/12/01 09:32:46;;;;;;;3.70;3.40;;;21.90;60.60;;;;;;4989367;28;20453;-83
2023/12/01 09:35:16;;;;;;;3.53;3.20;;;21.90;60.60;;;;;;4987817;28;20485;-83
2023/12/01 09:38:04;;;;;;;4.00;3.00;;;21.80;60.60;;;;;;4990659;28;20497;-83
2023/12/01 09:40:38;;;;;;;3.83;3.40;;;21.80;60.60;;;;;;4989524;28;20461;-83
2023/12/01 09:43:08;;;;;;;3.67;3.13;;;21.80;60.60;;;;;;4992370;28;20464;-83
2023/12/01 09:45:37;;;;;;;4.50;3.13;;;21.80;60.60;;;;;;4993022;28;20568;-83
2023/12/01 09:48:09;;;;;;;3.10;2.90;;;21.80;60.60;;;;;;4994628;28;20452;-83
2023/12/01 09:50:39;;;;;;;3.07;2.70;;;21.80;60.60;;;;;;4994102;28;20485;-84
2023/12/01 09:53:07;;;;;;;4.27;3.10;;;21.80;60.50;;;;;;4994538;28;20463;-84
2023/12/01 09:55:35;;;;;;;4.80;3.60;;;21.80;60.50;;;;;;4980213;28;20501;-86
2023/12/01 09:58:04;;;;;;;3.10;2.73;;;21.90;60.40;;;;;;4997675;28;20453;-83
2023/12/01 10:00:32;;;;;;;3.37;3.17;;;21.90;60.40;;;;;;4996527;28;20487;-83
2023/12/01 10:03:01;;;;;;;3.77;3.47;;;21.90;60.40;;;;;;4994699;28;20499;-85
2023/12/01 10:05:33;;;;;;;4.17;3.20;;;21.90;60.40;;;;;;5006871;28;20459;-85
2023/12/01 10:08:04;;;;;;;2.87;2.67;;;21.90;60.40;;;;;;5005030;28;20471;-86
2023/12/01 10:10:33;;;;;;;3.23;3.03;;;22.00;60.30;;;;;;4992666;28;20824;-86
2023/12/01 10:13:04;;;;;;;3.47;3.20;;;22.00;60.30;;;;;;4992201;28;20482;-86
2023/12/01 10:15:37;;;;;;;3.83;3.53;;;22.00;60.20;;;;;;4991190;28;21018;-84
2023/12/01 10:18:10;;;;;;;4.17;3.27;;;22.00;60.10;;;;;;4993298;28;20461;-83
2023/12/01 10:21:02;;;;;;;3.70;3.40;;;22.10;60.00;;;;;;4987020;28;20453;-83
2023/12/01 10:23:33;;;;;;;3.20;2.90;;;22.10;60.00;;;;;;4994776;28;20833;-85
2023/12/01 10:26:03;;;;;;;3.67;3.07;;;22.10;59.90;;;;;;4990185;28;20521;-85
2023/12/01 10:28:40;;;;;;;3.60;2.80;;;22.10;59.70;;;;;;5014407;28;20558;-84
2023/12/01 10:31:09;;;;;;;8.90;3.00;;;22.00;59.60;;;;;;4999217;28;20595;-83
2023/12/01 10:33:39;;;;;;;5.83;3.00;;;22.00;59.60;;;;;;4993060;28;20520;-83
2023/12/01 10:36:10;;;;;;;3.07;2.80;;;22.00;59.70;;;;;;4992951;28;20961;-83
2023/12/01 10:38:39;;;;;;;4.37;3.20;;;22.00;59.70;;;;;;4993458;28;20459;-83
2023/12/01 10:41:09;;;;;;;3.67;3.37;;;22.00;59.70;;;;;;4992356;28;20544;-84
2023/12/01 10:43:43;;;;;;;3.63;3.30;;;21.90;59.70;;;;;;4992607;28;20535;-82
2023/12/01 10:46:13;;;;;;;3.43;3.23;;;21.90;59.70;;;;;;4992274;28;20543;-85
2023/12/01 10:48:43;;;;;;;3.07;2.77;;;21.90;59.70;;;;;;4992184;28;20512;-83
2023/12/01 10:51:14;;;;;;;3.63;3.27;;;21.80;59.70;;;;;;4985617;28;20457;-84
2023/12/01 10:53:43;;;;;;;2.80;2.60;;;21.80;59.70;;;;;;4991878;28;20451;-83
2023/12/01 10:56:13;;;;;;;2.27;2.07;;;21.80;59.70;;;;;;4980846;28;20483;-85
2023/12/01 10:58:44;;;;;;;3.43;3.13;;;21.80;59.70;;;;;;4992818;28;20568;-84
2023/12/01 11:01:13;;;;;;;2.80;2.60;;;21.80;59.70;;;;;;4988937;28;20459;-83
2023/12/01 11:03:45;;;;;;;4.00;2.97;;;21.80;59.70;;;;;;4992256;28;20494;-84
2023/12/01 11:06:24;;;;;;;3.50;2.80;;;21.80;59.70;;;;;;4992400;28;20440;-83
2023/12/01 11:09:01;;;;;;;2.50;2.30;;;21.80;59.70;;;;;;4992775;28;20459;-88
2023/12/01 11:11:52;;;;;;;3.10;2.90;;;21.80;59.70;;;;;;5005933;28;20453;-84
2023/12/01 11:14:25;;;;;;;3.10;2.40;;;21.80;59.70;;;;;;4992704;28;20471;-84
2023/12/01 11:16:54;;;;;;;3.20;2.83;;;21.80;59.70;;;;;;4986711;28;20473;-87
2023/12/01 11:19:24;;;;;;;3.23;3.03;;;21.80;59.70;;;;;;4991283;28;20504;-89
2023/12/01 11:21:58;;;;;;;2.97;2.77;;;21.80;59.70;;;;;;4992267;28;20460;-89
2023/12/01 11:24:31;;;;;;;3.10;2.80;;;21.80;59.70;;;;;;4991567;28;20495;-88
2023/12/01 11:27:03;;;;;;;3.20;2.90;;;21.80;59.70;;;;;;4991072;28;20448;-84
2023/12/01 11:29:34;;;;;;;3.00;2.50;;;21.80;59.70;;;;;;4990806;28;20456;-84
2023/12/01 11:32:04;;;;;;;6.17;2.93;;;21.80;59.70;;;;;;4992207;28;20471;-84
2023/12/01 11:34:33;;;;;;;4.23;2.93;;;21.80;59.60;;;;;;4992409;28;20461;-84
2023/12/01 11:37:06;;;;;;;2.80;2.60;;;21.90;59.50;;;;;;4991492;28;20485;-83
2023/12/01 11:39:35;;;;;;;3.30;3.10;;;21.90;59.40;;;;;;4992367;28;20471;-83
2023/12/01 11:42:13;;;;;;;2.90;2.53;;;21.90;59.30;;;;;;4991024;28;20555;-84
2023/12/01 11:44:43;;;;;;;2.77;2.60;;;21.90;59.30;;;;;;4990120;28;20492;-83
2023/12/01 11:47:15;;;;;;;2.67;2.50;;;21.90;59.20;;;;;;4990951;28;20456;-84
2023/12/01 11:49:44;;;;;;;4.40;2.90;;;21.90;59.20;;;;;;4995925;28;20467;-85
2023/12/01 11:52:18;;;;;;;2.93;2.73;;;21.90;59.20;;;;;;4990234;28;20487;-84
2023/12/01 11:54:48;;;;;;;3.53;3.23;;;21.90;59.10;;;;;;4990865;28;20526;-83
2023/12/01 11:57:18;;;;;;;2.50;2.30;;;21.90;59.10;;;;;;4991268;28;20493;-86
2023/12/01 11:59:49;;;;;;;4.13;3.03;;;21.90;59.10;;;;;;4991304;28;20965;-84
2023/12/01 12:02:29;;;;;;;3.10;2.90;;;21.80;59.10;;;;;;4987582;28;20573;-86
2023/12/01 12:05:00;;;;;;;2.90;2.70;;;21.80;59.10;;;;;;4992171;28;20510;-84
2023/12/01 12:07:32;;;;;;;2.77;2.57;;;21.80;59.10;;;;;;4996722;28;20784;-83
2023/12/01 12:10:01;;;;;;;2.50;2.30;;;21.80;59.00;;;;;;4990661;28;20461;-83
2023/12/01 12:12:30;;;;;;;3.53;2.97;;;21.80;59.00;;;;;;4991872;28;20866;-83
2023/12/01 12:15:06;;;;;;;2.70;2.50;;;21.70;58.90;;;;;;4991315;28;20470;-84
2023/12/01 12:17:37;;;;;;;3.20;3.00;;;21.70;59.00;;;;;;4990704;28;20476;-83
2023/12/01 12:20:09;;;;;;;3.07;2.87;;;21.70;59.00;;;;;;4988164;28;20551;-84
2023/12/01 12:22:45;;;;;;;3.10;2.87;;;21.70;59.00;;;;;;4997537;28;20821;-84
2023/12/01 12:25:14;;;;;;;2.30;2.20;;;21.70;59.10;;;;;;4990207;28;20468;-85
2023/12/01 12:27:43;;;;;;;4.20;3.20;;;21.60;59.10;;;;;;4984030;28;20461;-81
2023/12/01 12:30:12;;;;;;;6.03;4.20;;;21.60;59.20;;;;;;4990529;28;20583;-82
2023/12/01 12:32:41;;;;;;;13.20;5.90;;;21.60;59.30;;;;;;4990330;28;20525;-82
2023/12/01 12:35:13;;;;;;;17.00;8.50;;;21.60;59.30;;;;;;4990548;28;20458;-83
2023/12/01 12:37:42;;;;;;;24.33;12.00;;;21.60;59.40;;;;;;4992838;28;20980;-84
2023/12/01 12:40:15;;;;;;;32.17;13.50;;;21.60;59.40;;;;;;4988079;28;20461;-83
2023/12/01 12:42:55;;;;;;;28.67;14.07;;;21.60;59.40;;;;;;4987562;28;20452;-83
2023/12/01 12:45:23;;;;;;;38.73;16.30;;;21.70;59.40;;;;;;4988149;28;20448;-85
2023/12/01 12:47:51;;;;;;;38.97;18.37;;;21.60;59.40;;;;;;4986208;28;20463;-81
2023/12/01 12:50:20;;;;;;;41.83;18.47;;;21.70;59.30;;;;;;4990920;28;21410;-81
2023/12/01 12:52:48;;;;;;;33.00;19.23;;;21.70;59.30;;;;;;4986967;28;20473;-82
2023/12/01 12:55:26;;;;;;;36.07;19.50;;;21.70;59.30;;;;;;4988681;28;20476;-81
2023/12/01 12:57:54;;;;;;;42.80;18.43;;;21.70;59.30;;;;;;4979445;28;20512;-87
2023/12/01 13:00:23;;;;;;;40.27;19.23;;;21.70;59.40;;;;;;4988139;28;21056;-83